| time (UTC) | temp C | wind direction | speed KPH | gust KPH | rain 1hr cm | rain 24hr cm | rain mn cm | humidity % | barometer mb |
| 20260508064850 | 10 | 306 | 0.0 | 0.0 | 0.00 | 0.00 | 0.00 | 97 | 1013.2 |
| 20260508063845 | 10 | 305 | 0.0 | 0.0 | 0.00 | 0.00 | 0.00 | 97 | 1013.2 |
| 20260508062845 | 10 | 301 | 0.0 | 0.0 | 0.00 | 0.00 | 0.00 | 97 | 1012.9 |
| 20260508061845 | 10 | 293 | 0.0 | 0.0 | 0.00 | 0.00 | 0.00 | 97 | 1013.0 |
| 20260508060845 | 10 | 305 | 0.0 | 0.0 | 0.00 | 0.00 | 0.00 | 97 | 1013.0 |
| 20260508055843 | 10 | 318 | 0.0 | 1.6 | 0.00 | 0.00 | 0.00 | 97 | 1013.0 |
| 20260508054843 | 10 | 307 | 0.0 | 0.0 | 0.00 | 0.00 | 0.00 | 97 | 1012.9 |
| 20260508053843 | 10 | 304 | 0.0 | 1.6 | 0.00 | 0.00 | 0.00 | 97 | 1012.8 |
| 20260508052844 | 10 | 313 | 0.0 | 0.0 | 0.00 | 0.00 | 0.00 | 97 | 1012.8 |
| 20260508051843 | 11 | 315 | 0.0 | 1.6 | 0.00 | 0.00 | 0.00 | 97 | 1012.6 |
| 20260508050840 | 11 | 310 | 0.0 | 0.0 | 0.00 | 0.00 | 0.00 | 97 | 1012.8 |
| 20260508045839 | 11 | 300 | 0.0 | 0.0 | 0.00 | 0.00 | 0.00 | 97 | 1013.0 |
| 20260508044834 | 11 | 312 | 0.0 | 0.0 | 0.00 | 0.00 | 0.00 | 97 | 1012.6 |
| 20260508043833 | 11 | 298 | 0.0 | 0.0 | 0.00 | 0.00 | 0.00 | 97 | 1012.6 |
| 20260508042832 | 11 | 291 | 1.6 | 4.8 | 0.00 | 0.00 | 0.00 | 97 | 1012.8 |
| 20260508041827 | 11 | 275 | 3.2 | 3.2 | 0.00 | 0.00 | 0.00 | 97 | 1012.4 |
| 20260508040826 | 11 | 320 | 3.2 | 3.2 | 0.00 | 0.00 | 0.00 | 97 | 1012.4 |
| 20260508035826 | 11 | 303 | 0.0 | 0.0 | 0.00 | 2.62 | 2.62 | 97 | 1012.2 |
| 20260508034826 | 11 | 310 | 0.0 | 0.0 | 0.00 | 2.62 | 2.62 | 97 | 1012.0 |
| 20260508033826 | 11 | 291 | 0.0 | 0.0 | 0.00 | 2.62 | 2.62 | 97 | 1011.8 |
| 20260508032821 | 11 | 305 | 0.0 | 0.0 | 0.00 | 2.62 | 2.62 | 97 | 1011.5 |
| 20260508031821 | 11 | 310 | 0.0 | 0.0 | 0.00 | 2.62 | 2.62 | 97 | 1011.8 |
| 20260508030820 | 11 | 303 | 0.0 | 0.0 | 0.00 | 2.62 | 2.62 | 97 | 1011.5 |
| 20260508025820 | 11 | 310 | 0.0 | 0.0 | 0.00 | 2.62 | 2.62 | 97 | 1011.5 |
| 20260508024820 | 11 | 302 | 0.0 | 0.0 | 0.00 | 2.62 | 2.62 | 97 | 1011.6 |
| 20260508023819 | 11 | 308 | 0.0 | 1.6 | 0.00 | 2.62 | 2.62 | 97 | 1011.6 |
| 20260508022818 | 11 | 300 | 3.2 | 4.8 | 0.00 | 2.62 | 2.62 | 97 | 1011.7 |
| 20260508021818 | 11 | 309 | 0.0 | 3.2 | 0.00 | 2.62 | 2.62 | 97 | 1011.4 |
| 20260508020816 | 11 | 310 | 0.0 | 0.0 | 0.00 | 2.62 | 2.62 | 97 | 1010.9 |
| 20260508015810 | 11 | 314 | 0.0 | 3.2 | 0.00 | 2.62 | 2.62 | 97 | 1011.2 |
| 20260508014810 | 11 | 297 | 0.0 | 0.0 | 0.00 | 2.62 | 2.62 | 97 | 1010.8 |
| 20260508013808 | 11 | 339 | 0.0 | 0.0 | 0.00 | 2.62 | 2.62 | 97 | 1010.4 |
| 20260508012803 | 11 | 319 | 0.0 | 0.0 | 0.00 | 2.62 | 2.62 | 97 | 1010.5 |
| 20260508011804 | 11 | 7 | 0.0 | 3.2 | 0.00 | 2.62 | 2.62 | 97 | 1010.6 |
| 20260508010803 | 11 | 314 | 0.0 | 1.6 | 0.30 | 2.62 | 2.62 | 97 | 1010.7 |
| 20260508005803 | 11 | 331 | 0.0 | 1.6 | 1.07 | 2.57 | 2.57 | 97 | 1010.5 |
| 20260508004802 | 11 | 5 | 0.0 | 3.2 | 0.97 | 2.36 | 2.36 | 96 | 1010.3 |
| 20260508003800 | 11 | 46 | 4.8 | 4.8 | 0.00 | 2.21 | 2.21 | 96 | 1009.9 |
| 20260508002800 | 11 | 72 | 4.8 | 9.7 | 0.00 | 2.21 | 2.21 | 96 | 1009.8 |
| 20260508001759 | 11 | 329 | 1.6 | 3.2 | 0.00 | 2.21 | 2.21 | 96 | 1009.7 |
| 20260508000757 | 11 | 50 | 4.8 | 8.0 | 0.00 | 2.21 | 2.21 | 96 | 1009.4 |
| 20260507235757 | 11 | 47 | 4.8 | 9.7 | 0.00 | 2.21 | 2.21 | 97 | 1009.3 |
| 20260507234751 | 11 | 347 | 4.8 | 11.3 | 0.00 | 2.21 | 2.21 | 97 | 1009.4 |
| 20260507233749 | 11 | 355 | 1.6 | 4.8 | 0.00 | 2.21 | 2.21 | 97 | 1009.5 |
| 20260507232745 | 11 | 21 | 1.6 | 3.2 | 0.00 | 2.21 | 2.21 | 97 | 1009.5 |
| 20260507231743 | 11 | 29 | 0.0 | 4.8 | 0.00 | 2.21 | 2.21 | 97 | 1009.1 |
| 20260507230743 | 11 | 301 | 1.6 | 4.8 | 0.00 | 2.21 | 2.21 | 97 | 1009.4 |
| 20260507225740 | 11 | 334 | 1.6 | 8.0 | 0.00 | 2.21 | 2.21 | 97 | 1008.7 |
| 20260507224738 | 11 | 355 | 3.2 | 4.8 | 0.00 | 2.21 | 2.21 | 97 | 1009.0 |
| 20260507223737 | 11 | 24 | 1.6 | 4.8 | 0.00 | 2.21 | 2.21 | 97 | 1009.0 |
| 20260507222736 | 11 | 16 | 6.4 | 9.7 | 0.00 | 2.21 | 2.21 | 97 | 1008.8 |
| 20260507221736 | 11 | 14 | 6.4 | 9.7 | 0.00 | 2.21 | 2.21 | 97 | 1008.9 |
| 20260507220734 | 11 | 326 | 11.3 | 17.7 | 0.00 | 2.21 | 2.21 | 97 | 1008.8 |
| 20260507215734 | 11 | 61 | 4.8 | 9.7 | 0.00 | 2.21 | 2.21 | 97 | 1008.7 |
| 20260507214735 | 12 | 23 | 3.2 | 9.7 | 0.00 | 2.21 | 2.21 | 97 | 1008.5 |
| 20260507213733 | 12 | 344 | 6.4 | 20.9 | 0.00 | 2.21 | 2.21 | 97 | 1008.3 |
| 20260507212732 | 12 | 48 | 1.6 | 11.3 | 0.00 | 2.21 | 2.21 | 97 | 1008.0 |
| 20260507211731 | 12 | 17 | 3.2 | 8.0 | 0.00 | 2.21 | 2.21 | 97 | 1008.2 |
| 20260507210730 | 12 | 46 | 3.2 | 20.9 | 0.00 | 2.21 | 2.21 | 97 | 1007.7 |
| 20260507205729 | 13 | 43 | 3.2 | 14.5 | 0.00 | 2.21 | 2.21 | 97 | 1007.8 |
| 20260507204728 | 13 | 325 | 4.8 | 9.7 | 0.00 | 2.21 | 2.21 | 97 | 1007.3 |
| 20260507203724 | 13 | 8 | 6.4 | 12.9 | 0.00 | 2.21 | 2.21 | 97 | 1007.3 |
| 20260507202723 | 13 | 358 | 8.0 | 12.9 | 0.00 | 2.21 | 2.21 | 97 | 1007.3 |
| 20260507201720 | 13 | 16 | 6.4 | 14.5 | 0.00 | 2.21 | 2.21 | 97 | 1007.4 |
| 20260507200719 | 15 | 286 | 1.6 | 12.9 | 0.00 | 2.21 | 2.21 | 97 | 1007.2 |
| 20260507195718 | 15 | 314 | 8.0 | 16.1 | 0.00 | 2.21 | 2.21 | 97 | 1007.1 |
| 20260507194718 | 15 | 306 | 4.8 | 20.9 | 0.00 | 2.21 | 2.21 | 97 | 1007.0 |
| 20260507193717 | 16 | 24 | 3.2 | 9.7 | 0.00 | 2.21 | 2.21 | 97 | 1006.9 |
| 20260507192716 | 16 | 19 | 3.2 | 8.0 | 0.00 | 2.21 | 2.21 | 97 | 1006.4 |
| 20260507191714 | 16 | 330 | 9.7 | 12.9 | 0.13 | 2.21 | 2.21 | 97 | 1006.4 |
| 20260507190714 | 16 | 340 | 8.0 | 14.5 | 0.00 | 2.18 | 2.18 | 97 | 1007.0 |
| 20260507185711 | 17 | 357 | 0.0 | 4.8 | 0.00 | 2.18 | 2.18 | 97 | 1006.8 |
| 20260507184711 | 17 | 298 | 0.0 | 4.8 | 0.00 | 2.18 | 2.18 | 97 | 1006.5 |
| 20260507183711 | 20 | 231 | 8.0 | 9.7 | 0.00 | 2.18 | 2.18 | 97 | 1006.5 |
| 20260507182711 | 20 | 280 | 11.3 | 20.9 | 0.00 | 2.18 | 2.18 | 97 | 1006.5 |
| 20260507181709 | 20 | 221 | 6.4 | 9.7 | 0.00 | 2.18 | 2.18 | 97 | 1006.6 |
| 20260507180709 | 20 | 207 | 8.0 | 9.7 | 0.00 | 2.18 | 2.18 | 97 | 1006.6 |
| 20260507175706 | 20 | 202 | 8.0 | 9.7 | 0.00 | 2.18 | 2.18 | 97 | 1006.3 |
| 20260507174701 | 20 | 204 | 8.0 | 12.9 | 0.00 | 2.18 | 2.18 | 97 | 1006.4 |
| 20260507173656 | 20 | 233 | 4.8 | 8.0 | 0.18 | 2.18 | 2.18 | 97 | 1006.8 |
| 20260507172655 | 20 | 228 | 3.2 | 8.0 | 0.00 | 2.16 | 2.16 | 97 | 1007.0 |
| 20260507171652 | 19 | 219 | 6.4 | 8.0 | 0.30 | 2.16 | 2.16 | 97 | 1007.3 |
| 20260507170652 | 19 | 230 | 8.0 | 12.9 | 0.13 | 2.11 | 2.11 | 97 | 1007.7 |
| 20260507165651 | 19 | 236 | 4.8 | 8.0 | 0.00 | 2.08 | 2.08 | 97 | 1007.7 |
| 20260507164649 | 20 | 262 | 4.8 | 4.8 | 0.00 | 2.08 | 2.08 | 97 | 1008.1 |
| 20260507163650 | 20 | 228 | 6.4 | 8.0 | 0.00 | 2.08 | 2.08 | 97 | 1007.9 |
| 20260507162649 | 20 | 189 | 6.4 | 9.7 | 0.13 | 2.06 | 2.06 | 97 | 1008.0 |
| 20260507161648 | 20 | 193 | 4.8 | 11.3 | 0.18 | 2.03 | 2.03 | 97 | 1007.9 |
| 20260507160647 | 20 | 200 | 9.7 | 12.9 | 0.00 | 2.01 | 2.01 | 97 | 1007.8 |
| 20260507155645 | 20 | 199 | 8.0 | 12.9 | 0.30 | 2.01 | 2.01 | 97 | 1007.9 |
| 20260507154644 | 20 | 212 | 6.4 | 8.0 | 0.30 | 1.96 | 1.96 | 97 | 1008.2 |
| 20260507153644 | 19 | 273 | 8.0 | 9.7 | 0.13 | 1.88 | 1.88 | 97 | 1008.4 |
| 20260507152642 | 19 | 244 | 8.0 | 11.3 | 0.13 | 1.83 | 1.83 | 97 | 1008.6 |
| 20260507151640 | 19 | 266 | 8.0 | 14.5 | 0.48 | 1.80 | 1.80 | 97 | 1008.8 |
| 20260507150639 | 19 | 253 | 8.0 | 14.5 | 0.66 | 1.70 | 1.70 | 97 | 1008.9 |
| 20260507145637 | 19 | 243 | 8.0 | 11.3 | 0.48 | 1.57 | 1.57 | 97 | 1008.9 |
| 20260507144637 | 19 | 253 | 8.0 | 16.1 | 0.30 | 1.50 | 1.50 | 97 | 1008.8 |
| 20260507143637 | 20 | 229 | 8.0 | 12.9 | 0.13 | 1.45 | 1.45 | 97 | 1008.7 |
| 20260507142636 | 20 | 232 | 8.0 | 12.9 | 0.00 | 1.42 | 1.42 | 97 | 1008.6 |
| 20260507141635 | 20 | 245 | 8.0 | 9.7 | 0.18 | 1.42 | 1.42 | 97 | 1008.6 |
| 20260507140634 | 20 | 256 | 6.4 | 9.7 | 0.00 | 1.40 | 1.40 | 97 | 1008.6 |
| 20260507135634 | 20 | 232 | 6.4 | 11.3 | 0.00 | 1.40 | 1.40 | 97 | 1008.8 |
| 20260507134633 | 20 | 237 | 4.8 | 8.0 | 0.00 | 1.40 | 1.40 | 97 | 1008.6 |
| 20260507133631 | 20 | 235 | 4.8 | 8.0 | 0.00 | 1.40 | 1.40 | 97 | 1008.7 |
| 20260507132631 | 20 | 212 | 9.7 | 11.3 | 0.00 | 1.40 | 1.40 | 97 | 1008.4 |
| 20260507131630 | 19 | 240 | 11.3 | 12.9 | 0.00 | 1.40 | 1.40 | 97 | 1008.5 |
| 20260507130630 | 19 | 244 | 3.2 | 9.7 | 0.00 | 1.40 | 1.40 | 97 | 1008.6 |
| 20260507125627 | 19 | 208 | 6.4 | 9.7 | 0.00 | 1.40 | 1.40 | 97 | 1008.7 |
| 20260507124625 | 19 | 226 | 11.3 | 12.9 | 0.00 | 1.40 | 1.40 | 97 | 1008.7 |
| 20260507123622 | 19 | 200 | 8.0 | 11.3 | 0.00 | 1.40 | 1.40 | 97 | 1008.9 |
| 20260507122619 | 19 | 214 | 8.0 | 16.1 | 0.00 | 1.40 | 1.40 | 97 | 1009.1 |
| 20260507121617 | 19 | 204 | 9.7 | 14.5 | 0.00 | 1.40 | 1.40 | 97 | 1009.3 |
| 20260507120615 | 19 | 190 | 9.7 | 12.9 | 0.00 | 1.40 | 1.40 | 97 | 1009.5 |
| 20260507115615 | 18 | 210 | 6.4 | 12.9 | 0.00 | 1.40 | 1.40 | 97 | 1009.7 |
| 20260507114612 | 18 | 208 | 4.8 | 8.0 | 0.00 | 1.40 | 1.40 | 97 | 1009.8 |
| 20260507113607 | 18 | 197 | 4.8 | 4.8 | 0.00 | 1.40 | 1.40 | 97 | 1009.7 |
| 20260507112602 | 18 | 219 | 4.8 | 4.8 | 0.13 | 1.40 | 1.40 | 97 | 1009.7 |
| 20260507111601 | 18 | 200 | 4.8 | 8.0 | 0.00 | 1.37 | 1.37 | 97 | 1009.6 |
| 20260507110600 | 18 | 214 | 6.4 | 9.7 | 0.18 | 1.35 | 1.35 | 97 | 1009.4 |
| 20260507105559 | 18 | 197 | 4.8 | 8.0 | 0.00 | 1.32 | 1.32 | 97 | 1009.6 |
| 20260507104559 | 18 | 210 | 6.4 | 8.0 | 0.13 | 1.32 | 1.32 | 97 | 1009.6 |
| 20260507103557 | 18 | 227 | 4.8 | 11.3 | 0.18 | 1.30 | 1.30 | 97 | 1009.8 |
| 20260507102556 | 18 | 231 | 1.6 | 4.8 | 0.13 | 1.27 | 1.27 | 97 | 1009.3 |
| 20260507101554 | 18 | 210 | 6.4 | 9.7 | 0.18 | 1.24 | 1.24 | 97 | 1009.2 |
| 20260507100554 | 18 | 228 | 8.0 | 9.7 | 0.13 | 1.22 | 1.22 | 97 | 1009.0 |
| 20260507095549 | 18 | 225 | 8.0 | 12.9 | 0.00 | 1.19 | 1.19 | 97 | 1009.1 |
| 20260507094548 | 18 | 217 | 8.0 | 12.9 | 0.00 | 1.19 | 1.19 | 97 | 1009.2 |
| 20260507093548 | 18 | 225 | 12.9 | 17.7 | 0.00 | 1.19 | 1.19 | 97 | 1009.1 |
| 20260507092543 | 18 | 180 | 14.5 | 17.7 | 0.61 | 1.19 | 1.19 | 97 | 1009.0 |
| 20260507091543 | 18 | 191 | 11.3 | 14.5 | 0.79 | 1.07 | 1.07 | 97 | 1009.4 |
| 20260507090540 | 18 | 182 | 8.0 | 14.5 | 0.48 | 0.91 | 0.91 | 97 | 1009.7 |
| 20260507085540 | 18 | 236 | 8.0 | 11.3 | 0.30 | 0.84 | 0.84 | 97 | 1010.2 |
| 20260507084539 | 18 | 208 | 9.7 | 11.3 | 0.13 | 0.79 | 0.79 | 97 | 1010.0 |
| 20260507083538 | 18 | 206 | 9.7 | 14.5 | 0.18 | 0.76 | 0.76 | 97 | 1009.6 |
| 20260507082537 | 18 | 184 | 8.0 | 11.3 | 0.00 | 0.74 | 0.74 | 97 | 1009.7 |
| 20260507081536 | 18 | 225 | 1.6 | 4.8 | 0.18 | 0.74 | 0.74 | 97 | 1009.8 |
| 20260507080535 | 18 | 222 | 3.2 | 3.2 | 0.00 | 0.71 | 0.71 | 97 | 1010.1 |
| 20260507075533 | 18 | 170 | 6.4 | 8.0 | 0.00 | 0.71 | 0.71 | 97 | 1009.8 |
| 20260507074532 | 18 | 203 | 0.0 | 0.0 | 0.00 | 0.71 | 0.71 | 97 | 1009.9 |
| 20260507073532 | 18 | 173 | 3.2 | 4.8 | 0.00 | 0.71 | 0.71 | 97 | 1010.2 |
| 20260507072532 | 18 | 180 | 0.0 | 0.0 | 0.00 | 0.71 | 0.71 | 97 | 1010.3 |
| 20260507071527 | 18 | 194 | 0.0 | 0.0 | 0.00 | 0.71 | 0.71 | 97 | 1010.2 |
| 20260507070526 | 18 | 267 | 0.0 | 0.0 | 0.00 | 0.71 | 0.71 | 97 | 1010.6 |
| 20260507065525 | 18 | 256 | 0.0 | 0.0 | 0.00 | 0.71 | 0.71 | 97 | 1010.6 |